Time;durP1;ratioP1;P1;durP2;ratioP2;P2;SDS_P1;SDS_P2;PMS_P1;PMS_P2;Temp;Humidity;BMP_temperature;BMP_pressure;BME280_temperature;BME280_humidity;BME280_pressure;Samples;Min_cycle;Max_cycle;Signal;HPM_P1;HPM_P2
2022/07/06 00:00:16;;;;;;;4.72;1.38;;;;;;;14.13;57.56;101350.03;5050084;28;20049;-46
2022/07/06 00:02:43;;;;;;;3.15;1.65;;;;;;;14.11;58.09;101346.53;5043947;28;20527;-47
2022/07/06 00:05:10;;;;;;;4.97;1.52;;;;;;;14.09;58.11;101340.44;5050560;28;20056;-46
2022/07/06 00:07:36;;;;;;;5.53;1.42;;;;;;;14.09;58.07;101337.84;5048972;28;20521;-47
2022/07/06 00:10:03;;;;;;;6.03;1.45;;;;;;;14.11;57.84;101328.31;5063959;28;20044;-46
2022/07/06 00:12:30;;;;;;;3.15;1.70;;;;;;;14.13;58.47;101329.19;5050006;28;20045;-45
2022/07/06 00:14:57;;;;;;;5.47;1.52;;;;;;;14.19;58.18;101322.25;5045720;28;20174;-47
2022/07/06 00:17:24;;;;;;;5.82;1.75;;;;;;;14.24;58.30;101325.72;5047123;28;20052;-46
2022/07/06 00:19:52;;;;;;;3.97;1.52;;;;;;;14.30;58.27;101320.53;5047797;28;20515;-45
2022/07/06 00:22:20;;;;;;;4.38;1.55;;;;;;;14.34;58.73;101319.69;5045549;28;20045;-46
2022/07/06 00:24:49;;;;;;;3.53;1.20;;;;;;;14.39;58.10;101320.56;5051446;28;20071;-45
2022/07/06 00:27:17;;;;;;;5.45;1.25;;;;;;;14.44;58.31;101322.28;5046180;28;20045;-46
2022/07/06 00:29:46;;;;;;;5.55;1.48;;;;;;;14.48;58.63;101313.59;5041045;28;20053;-46
2022/07/06 00:32:14;;;;;;;6.95;1.60;;;;;;;14.49;59.13;101310.16;5047887;28;20131;-46
2022/07/06 00:34:42;;;;;;;2.67;1.40;;;;;;;14.52;58.93;101318.84;5046850;28;20041;-45
2022/07/06 00:37:10;;;;;;;4.47;1.38;;;;;;;14.55;58.68;101310.16;5049358;28;20052;-47
2022/07/06 00:39:38;;;;;;;6.55;1.20;;;;;;;14.60;58.83;101313.66;5055079;28;20095;-46
2022/07/06 00:42:05;;;;;;;7.80;1.83;;;;;;;14.64;58.67;101314.50;5050216;28;20057;-46
2022/07/06 00:44:33;;;;;;;3.75;1.50;;;;;;;14.68;58.53;101315.38;5045657;28;20062;-48
2022/07/06 00:47:00;;;;;;;6.57;1.50;;;;;;;14.71;59.05;101312.75;5048582;28;20102;-46
2022/07/06 00:52:14;;;;;;;4.70;1.27;;;;;;;14.77;58.90;101307.59;5048654;28;20186;-46
2022/07/06 00:54:42;;;;;;;5.07;1.20;;;;;;;14.80;58.88;101299.78;5049784;28;20041;-49
2022/07/06 00:57:09;;;;;;;7.32;1.63;;;;;;;14.84;58.72;101306.72;5047130;28;20107;-45
2022/07/06 00:59:36;;;;;;;3.58;1.92;;;;;;;14.88;58.97;101308.47;5042605;28;20048;-48
2022/07/06 01:02:02;;;;;;;4.85;1.63;;;;;;;14.92;58.76;101309.31;5040291;28;20053;-46
2022/07/06 01:04:29;;;;;;;2.65;1.40;;;;;;;14.94;58.93;101291.06;5050345;28;20045;-47
2022/07/06 01:06:57;;;;;;;7.45;1.23;;;;;;;14.96;58.46;101295.41;5050035;28;20083;-47
2022/07/06 01:09:23;;;;;;;6.15;1.17;;;;;;;14.97;59.40;101296.28;5047935;28;20045;-47
2022/07/06 01:11:52;;;;;;;5.97;1.33;;;;;;;14.99;59.51;101299.75;5045789;28;20049;-46
2022/07/06 01:14:20;;;;;;;7.07;1.48;;;;;;;15.00;59.01;101311.94;5048776;28;20044;-46
2022/07/06 01:16:47;;;;;;;3.83;2.15;;;;;;;15.00;58.65;101309.31;5051774;28;20419;-45
2022/07/06 01:19:14;;;;;;;4.15;1.45;;;;;;;15.02;59.26;101310.19;5041477;28;20048;-46
2022/07/06 01:21:41;;;;;;;4.95;1.05;;;;;;;15.03;59.59;101309.31;5047782;28;20059;-46
2022/07/06 01:24:07;;;;;;;5.00;1.20;;;;;;;15.06;58.86;101306.69;5053659;28;20071;-47
2022/07/06 01:26:34;;;;;;;4.45;1.30;;;;;;;15.07;59.00;101308.44;5048424;28;20742;-49
2022/07/06 01:29:01;;;;;;;4.82;1.52;;;;;;;15.08;59.38;101315.41;5046167;28;20476;-47
2022/07/06 01:31:27;;;;;;;4.35;1.50;;;;;;;15.08;59.82;101312.78;5057623;28;20094;-47
2022/07/06 01:33:56;;;;;;;4.43;1.65;;;;;;;15.09;59.57;101317.13;5044033;28;20110;-46
2022/07/06 01:36:23;;;;;;;3.38;1.13;;;;;;;15.10;59.26;101313.63;5051880;28;20647;-46
2022/07/06 01:38:54;;;;;;;8.63;2.17;;;;;;;15.12;59.69;101314.53;5046257;28;20099;-45
2022/07/06 01:41:20;;;;;;;7.15;1.15;;;;;;;15.12;59.53;101314.53;5044544;28;20056;-46
2022/07/06 01:43:47;;;;;;;9.07;1.38;;;;;;;15.11;59.76;101299.75;5050393;28;20053;-46
2022/07/06 01:46:14;;;;;;;4.75;1.38;;;;;;;15.10;59.93;101292.75;5053533;28;20052;-46
2022/07/06 01:48:41;;;;;;;2.58;0.90;;;;;;;15.10;59.80;101295.38;5042516;28;20052;-45
2022/07/06 01:51:08;;;;;;;5.15;1.52;;;;;;;15.10;60.19;101291.91;5040893;28;20109;-47
2022/07/06 01:53:35;;;;;;;5.18;1.50;;;;;;;15.07;60.30;101295.41;5053428;28;20053;-46
2022/07/06 01:56:02;;;;;;;5.53;1.73;;;;;;;15.04;60.98;101298.00;5048993;28;20044;-45
2022/07/06 01:58:28;;;;;;;5.43;1.85;;;;;;;15.05;60.89;101307.56;5049341;28;20063;-47
2022/07/06 02:00:55;;;;;;;4.40;1.50;;;;;;;15.07;60.48;101302.34;5048579;28;20045;-45
2022/07/06 02:03:22;;;;;;;4.90;1.10;;;;;;;15.07;60.97;101295.41;5039678;28;20045;-49
2022/07/06 02:05:49;;;;;;;4.70;1.30;;;;;;;15.09;61.39;101293.66;5046436;28;20140;-46
2022/07/06 02:08:16;;;;;;;3.90;1.65;;;;;;;15.10;60.87;101298.00;5045953;28;20444;-45
2022/07/06 02:10:42;;;;;;;3.35;1.35;;;;;;;15.11;61.34;101289.31;5053294;28;20044;-46
2022/07/06 02:13:09;;;;;;;4.95;1.10;;;;;;;15.13;61.45;101287.56;5047597;28;20045;-46
2022/07/06 02:15:36;;;;;;;4.35;1.25;;;;;;;15.14;61.44;101284.06;5044385;28;20903;-47
2022/07/06 02:18:03;;;;;;;2.58;1.30;;;;;;;15.13;61.69;101287.56;5043083;28;20436;-47
2022/07/06 02:20:29;;;;;;;4.53;1.38;;;;;;;15.16;61.14;101287.56;5052507;28;20041;-47
2022/07/06 02:22:56;;;;;;;4.18;1.55;;;;;;;15.16;61.04;101282.34;5057035;28;20049;-46
2022/07/06 02:25:23;;;;;;;5.80;1.95;;;;;;;15.15;61.48;101275.38;5057804;28;20373;-48
2022/07/06 02:27:49;;;;;;;4.38;1.58;;;;;;;15.13;62.17;101282.31;5049875;28;20053;-46
2022/07/06 02:30:16;;;;;;;3.33;1.48;;;;;;;15.12;61.28;101280.59;5056100;28;20690;-47
2022/07/06 02:32:43;;;;;;;3.30;1.50;;;;;;;15.10;61.75;101277.13;5052778;28;20473;-47
2022/07/06 02:35:09;;;;;;;3.50;1.60;;;;;;;15.09;62.26;101275.38;5058864;28;20049;-45
2022/07/06 02:37:36;;;;;;;3.67;1.73;;;;;;;15.09;61.86;101277.13;5049091;28;20056;-46
2022/07/06 02:40:03;;;;;;;4.30;1.80;;;;;;;15.09;62.35;101274.50;5047739;28;20037;-46
2022/07/06 02:42:30;;;;;;;8.10;1.80;;;;;;;15.08;63.04;101268.44;5055445;28;20045;-45
2022/07/06 02:44:56;;;;;;;3.47;1.55;;;;;;;15.09;62.70;101267.56;5049651;28;20049;-45
2022/07/06 02:47:23;;;;;;;5.30;1.55;;;;;;;15.09;63.21;101264.94;5046763;28;20150;-44
2022/07/06 02:49:50;;;;;;;3.88;1.80;;;;;;;15.11;62.80;101262.34;5042670;28;20664;-44
2022/07/06 02:52:16;;;;;;;4.50;1.73;;;;;;;15.12;63.31;101259.72;5053453;28;20436;-44
2022/07/06 02:54:43;;;;;;;3.08;1.95;;;;;;;15.14;63.78;101263.19;5051548;28;20499;-44
2022/07/06 02:57:10;;;;;;;6.90;2.53;;;;;;;15.18;63.62;101261.44;5043240;28;20048;-45
2022/07/06 02:59:37;;;;;;;4.85;1.52;;;;;;;15.21;63.79;101251.00;5057727;28;20111;-49
2022/07/06 03:02:04;;;;;;;2.85;1.63;;;;;;;15.23;64.05;101251.00;5047075;28;20102;-45
2022/07/06 03:04:31;;;;;;;4.70;1.60;;;;;;;15.25;63.71;101249.25;5054889;28;20049;-45
2022/07/06 03:06:57;;;;;;;3.80;1.85;;;;;;;15.26;63.97;101245.75;5048798;28;20121;-44
2022/07/06 03:09:24;;;;;;;4.03;1.52;;;;;;;15.28;64.22;101238.81;5050075;28;20072;-45
2022/07/06 03:11:51;;;;;;;3.70;1.38;;;;;;;15.28;63.85;101238.81;5053402;28;20052;-44
2022/07/06 03:14:18;;;;;;;5.97;1.42;;;;;;;15.26;63.46;101236.19;5046862;28;20056;-45
2022/07/06 03:16:45;;;;;;;4.03;1.63;;;;;;;15.24;64.29;101234.47;5054381;28;20052;-45
2022/07/06 03:19:17;;;;;;;3.63;1.45;;;;;;;15.22;64.09;101230.97;5048985;28;20072;-45
2022/07/06 03:21:43;;;;;;;3.10;1.42;;;;;;;15.19;63.73;101238.84;5046147;28;20048;-44
2022/07/06 03:24:10;;;;;;;4.45;1.70;;;;;;;15.19;63.83;101241.47;5053056;28;20052;-46
2022/07/06 03:26:36;;;;;;;6.10;1.20;;;;;;;15.18;63.64;101242.31;5056474;28;20049;-48
2022/07/06 03:29:03;;;;;;;3.22;1.50;;;;;;;15.19;63.15;101244.06;5050719;28;20107;-45
2022/07/06 03:31:30;;;;;;;4.28;1.70;;;;;;;15.20;63.81;101243.19;5054826;28;20048;-44
2022/07/06 03:33:56;;;;;;;4.38;1.42;;;;;;;15.20;63.71;101240.56;5048696;28;20053;-44
2022/07/06 03:36:23;;;;;;;3.85;1.70;;;;;;;15.21;64.18;101247.53;5048791;28;20079;-44
2022/07/06 03:38:50;;;;;;;5.40;1.35;;;;;;;15.21;63.57;101237.97;5050610;28;20053;-45
2022/07/06 03:41:16;;;;;;;5.78;1.45;;;;;;;15.23;63.78;101243.19;5046703;28;20059;-46
2022/07/06 03:43:43;;;;;;;4.15;1.67;;;;;;;15.22;63.68;101255.34;5044991;28;20049;-46
2022/07/06 03:46:09;;;;;;;2.90;1.00;;;;;;;15.21;64.62;101253.63;5049041;28;20045;-47
2022/07/06 03:48:36;;;;;;;5.53;1.38;;;;;;;15.20;64.13;101251.00;5051016;28;20078;-45
2022/07/06 03:51:03;;;;;;;3.90;1.30;;;;;;;15.21;64.16;101257.97;5046751;28;20102;-44
2022/07/06 03:53:30;;;;;;;3.30;1.02;;;;;;;15.23;63.84;101264.91;5047195;28;20044;-46
2022/07/06 03:58:43;;;;;;;3.20;1.00;;;;;;;15.26;63.74;101261.41;5043264;28;20049;-45
2022/07/06 04:01:10;;;;;;;3.80;1.05;;;;;;;15.28;63.57;101265.78;5056827;28;20094;-46
2022/07/06 04:03:37;;;;;;;2.78;0.82;;;;;;;15.31;64.07;101266.63;5045686;28;20052;-47
2022/07/06 04:06:04;;;;;;;2.90;1.15;;;;;;;15.33;63.86;101268.34;5049685;28;20052;-46
2022/07/06 04:08:30;;;;;;;5.63;1.73;;;;;;;15.37;63.74;101264.88;5046009;28;20051;-44
2022/07/06 04:10:57;;;;;;;2.20;1.20;;;;;;;15.40;63.76;101275.31;5050828;28;20578;-43
2022/07/06 04:13:25;;;;;;;2.80;1.27;;;;;;;15.44;64.04;101270.06;5046128;28;20045;-43
2022/07/06 04:15:52;;;;;;;4.00;1.30;;;;;;;15.47;64.46;101264.84;5042352;28;20047;-43
2022/07/06 04:18:18;;;;;;;4.10;1.50;;;;;;;15.53;63.71;101270.03;5045367;28;20045;-45
2022/07/06 04:20:46;;;;;;;2.70;1.60;;;;;;;15.58;63.34;101272.63;5047261;28;20770;-45
2022/07/06 04:23:13;;;;;;;3.72;1.25;;;;;;;15.59;63.63;101264.81;5045336;28;20052;-43
2022/07/06 04:25:40;;;;;;;5.10;2.03;;;;;;;15.63;63.52;101265.63;5046079;28;20052;-44
2022/07/06 04:28:06;;;;;;;2.55;1.73;;;;;;;15.64;63.74;101263.03;5044063;28;20052;-43
2022/07/06 04:30:33;;;;;;;5.57;1.25;;;;;;;15.66;63.66;101261.28;5053645;28;20090;-45
2022/07/06 04:32:59;;;;;;;4.57;1.10;;;;;;;15.69;63.02;101247.34;5044086;28;20528;-44
2022/07/06 04:35:26;;;;;;;4.40;1.05;;;;;;;15.72;63.34;101259.50;5047304;28;20056;-46
2022/07/06 04:37:53;;;;;;;6.50;1.55;;;;;;;15.73;63.45;101261.25;5047107;28;20053;-47
2022/07/06 04:40:20;;;;;;;4.63;1.58;;;;;;;15.75;63.35;101259.50;5046984;28;20060;-45
2022/07/06 04:42:47;;;;;;;4.72;1.55;;;;;;;15.76;63.64;101261.22;5042795;28;20055;-43
2022/07/06 04:45:14;;;;;;;5.05;1.30;;;;;;;15.78;63.98;101260.34;5043769;28;20045;-43
2022/07/06 04:47:41;;;;;;;3.92;1.58;;;;;;;15.81;63.71;101264.72;5048251;28;20055;-45
2022/07/06 04:50:07;;;;;;;4.95;1.25;;;;;;;15.84;63.50;101269.91;5052826;28;20045;-43
2022/07/06 04:52:34;;;;;;;3.47;1.17;;;;;;;15.84;64.06;101264.66;5045988;28;20041;-45
2022/07/06 04:55:04;;;;;;;3.33;1.45;;;;;;;15.86;63.59;101251.59;5050209;28;20048;-44
2022/07/06 04:57:31;;;;;;;;;;;;;;;15.73;63.68;101246.44;5041456;28;20107;-44
2022/07/06 04:59:58;;;;;;;3.92;1.67;;;;;;;15.86;63.84;101249.00;5055599;28;19970;-46
2022/07/06 05:02:24;;;;;;;2.50;1.40;;;;;;;15.89;63.89;101255.09;5043212;28;20057;-45
2022/07/06 05:04:51;;;;;;;4.13;1.90;;;;;;;15.90;63.66;101253.31;5043209;28;20488;-44
2022/07/06 05:07:19;;;;;;;2.88;1.20;;;;;;;15.92;64.25;101265.53;5046949;28;20048;-44
2022/07/06 05:09:45;;;;;;;2.70;1.27;;;;;;;15.94;64.32;101268.97;5048837;28;20045;-43
2022/07/06 05:12:17;;;;;;;3.85;1.20;;;;;;;15.94;64.08;101266.38;5051369;28;20106;-43
2022/07/06 05:14:44;;;;;;;4.55;1.67;;;;;;;15.94;64.06;101266.38;5053387;28;20131;-43
2022/07/06 05:17:11;;;;;;;3.63;1.20;;;;;;;15.96;64.42;101268.13;5044126;28;20049;-44
2022/07/06 05:19:40;;;;;;;2.67;1.13;;;;;;;15.98;64.78;101266.38;5047113;28;20118;-45
2022/07/06 05:22:06;;;;;;;3.22;1.25;;;;;;;16.00;64.52;101265.50;5053536;28;20095;-44
2022/07/06 05:24:33;;;;;;;2.95;1.63;;;;;;;16.02;64.73;101257.66;5046674;28;20052;-45
2022/07/06 05:26:59;;;;;;;4.88;1.95;;;;;;;16.04;65.07;101266.34;5055126;28;20049;-44
2022/07/06 05:29:26;;;;;;;3.33;1.10;;;;;;;16.05;65.09;101265.47;5044657;28;20056;-45
2022/07/06 05:31:52;;;;;;;5.00;1.75;;;;;;;16.10;65.01;101262.81;5043543;28;20608;-44
2022/07/06 05:34:19;;;;;;;2.80;1.40;;;;;;;16.13;64.66;101274.13;5043533;28;20072;-44
2022/07/06 05:36:46;;;;;;;3.42;1.58;;;;;;;16.16;65.62;101276.75;5046632;28;20616;-44
2022/07/06 05:39:13;;;;;;;2.75;1.50;;;;;;;16.21;65.27;101268.84;5041128;28;20095;-44
2022/07/06 05:41:39;;;;;;;2.70;1.33;;;;;;;16.25;65.84;101277.53;5050337;28;20048;-44
2022/07/06 05:44:06;;;;;;;3.60;1.75;;;;;;;16.29;65.09;101274.03;5044560;28;20049;-47
2022/07/06 05:46:32;;;;;;;3.45;1.95;;;;;;;16.34;65.31;101274.84;5050166;28;20143;-45
2022/07/06 05:51:46;;;;;;;5.03;1.33;;;;;;;16.45;65.23;101273.03;5049026;28;20045;-44
2022/07/06 05:54:12;;;;;;;4.82;2.15;;;;;;;16.53;65.13;101269.50;5050994;28;20045;-48
2022/07/06 05:56:39;;;;;;;2.65;1.27;;;;;;;16.58;65.42;101268.56;5051816;28;20045;-47
2022/07/06 05:59:05;;;;;;;3.85;1.27;;;;;;;16.67;65.80;101257.19;5053335;28;20049;-45
2022/07/06 06:01:32;;;;;;;5.45;1.95;;;;;;;16.78;65.46;101258.81;5044930;28;20057;-45
2022/07/06 06:03:59;;;;;;;2.38;1.63;;;;;;;16.89;65.13;101256.97;5052065;28;20129;-45
2022/07/06 06:06:26;;;;;;;3.35;1.45;;;;;;;16.99;65.97;101262.97;5056820;28;20495;-46
2022/07/06 06:08:53;;;;;;;3.22;1.67;;;;;;;17.08;65.77;101262.03;5045441;28;20045;-46
2022/07/06 06:11:20;;;;;;;4.53;1.60;;;;;;;17.19;65.66;101257.56;5045107;28;20091;-45
2022/07/06 06:13:47;;;;;;;3.47;1.70;;;;;;;17.31;66.11;101263.53;5051804;28;20056;-46
2022/07/06 06:16:15;;;;;;;3.00;1.73;;;;;;;17.41;65.68;101270.41;5056763;28;20103;-45
2022/07/06 06:18:42;;;;;;;3.47;1.70;;;;;;;17.52;65.59;101277.25;5044483;28;20044;-45
2022/07/06 06:21:10;;;;;;;2.92;1.58;;;;;;;17.60;65.96;101275.44;5051695;28;20057;-45
2022/07/06 06:23:36;;;;;;;5.15;1.92;;;;;;;17.72;66.39;101274.41;5056799;28;20049;-44
2022/07/06 06:26:03;;;;;;;5.05;1.70;;;;;;;17.85;66.01;101277.72;5051209;28;20460;-49
2022/07/06 06:28:30;;;;;;;3.85;1.60;;;;;;;18.01;65.95;101285.38;5049492;28;20040;-49
2022/07/06 06:30:56;;;;;;;3.58;1.40;;;;;;;18.15;65.26;101283.47;5055849;28;20064;-47
2022/07/06 06:33:23;;;;;;;3.50;1.30;;;;;;;18.20;65.76;101276.38;5049924;28;20045;-46
2022/07/06 06:35:51;;;;;;;3.95;1.60;;;;;;;18.23;65.54;101286.84;5057252;28;20115;-46
2022/07/06 06:38:20;;;;;;;2.75;1.30;;;;;;;18.24;65.75;101282.47;5023852;28;20048;-48
2022/07/06 06:40:47;;;;;;;2.72;1.35;;;;;;;18.22;65.01;101282.50;5045373;28;20056;-46
2022/07/06 06:43:14;;;;;;;2.60;1.50;;;;;;;18.24;65.39;101282.47;5060411;28;20102;-45
2022/07/06 06:45:41;;;;;;;2.83;1.20;;;;;;;18.24;65.70;101288.56;5063921;28;20495;-45
2022/07/06 06:48:07;;;;;;;4.18;1.33;;;;;;;18.28;65.96;101283.28;5066283;28;20040;-46
2022/07/06 06:50:42;;;;;;;2.08;1.25;;;;;;;18.26;65.24;101285.91;5063702;28;20047;-45
2022/07/06 06:53:09;;;;;;;2.58;1.38;;;;;;;18.27;65.52;101276.31;5063634;28;20523;-47
2022/07/06 06:55:36;;;;;;;2.65;1.45;;;;;;;18.27;65.70;101284.19;5066782;28;20372;-46
2022/07/06 06:58:02;;;;;;;5.05;1.40;;;;;;;18.30;65.78;101278.88;5084620;28;20515;-46
2022/07/06 07:00:29;;;;;;;4.70;1.85;;;;;;;18.31;65.62;101283.22;5087740;28;20044;-46
2022/07/06 07:02:56;;;;;;;3.00;1.20;;;;;;;18.35;65.39;101291.03;5066674;28;20056;-45
2022/07/06 07:05:23;;;;;;;2.08;1.17;;;;;;;18.38;66.16;101290.13;5082654;28;20055;-46
2022/07/06 07:07:54;;;;;;;3.95;1.40;;;;;;;18.43;65.58;101288.28;5085096;28;20139;-45
2022/07/06 07:10:29;;;;;;;2.45;1.42;;;;;;;18.48;65.18;101291.69;5084454;28;20656;-46
2022/07/06 07:12:56;;;;;;;3.58;1.58;;;;;;;18.54;65.46;101295.13;5079790;28;20040;-47
2022/07/06 07:15:22;;;;;;;4.88;1.52;;;;;;;18.55;65.85;101297.72;5086458;28;20048;-46
2022/07/06 07:17:49;;;;;;;1.98;1.40;;;;;;;18.57;65.31;101300.28;5086365;28;20056;-45
2022/07/06 07:20:16;;;;;;;7.10;1.48;;;;;;;18.56;65.17;101293.31;5085114;28;20464;-46
2022/07/06 07:22:42;;;;;;;2.60;1.33;;;;;;;18.56;65.05;101293.31;5082564;28;20052;-46
2022/07/06 07:25:09;;;;;;;2.25;1.08;;;;;;;18.60;64.80;101285.38;5083389;28;20608;-46
2022/07/06 07:27:36;;;;;;;2.33;1.40;;;;;;;18.70;64.93;101286.09;5083743;28;20052;-46
2022/07/06 07:30:04;;;;;;;4.28;1.52;;;;;;;18.88;64.96;101284.06;5086867;28;20063;-46
2022/07/06 07:32:31;;;;;;;2.92;1.50;;;;;;;19.04;65.21;101294.28;5068027;28;20051;-46
2022/07/06 07:34:58;;;;;;;4.18;1.52;;;;;;;19.14;64.44;101285.34;5085111;28;20059;-46
2022/07/06 07:37:24;;;;;;;4.43;1.67;;;;;;;19.20;64.35;101285.25;5081585;28;20161;-45
2022/07/06 07:39:51;;;;;;;3.05;1.60;;;;;;;19.25;64.27;101286.00;5080044;28;20137;-47
2022/07/06 07:42:18;;;;;;;3.40;1.45;;;;;;;19.32;63.95;101285.91;5085066;28;20416;-47
2022/07/06 07:44:45;;;;;;;1.90;1.13;;;;;;;19.34;63.51;101286.72;5088338;28;20044;-46
2022/07/06 07:47:11;;;;;;;3.03;1.20;;;;;;;19.35;63.64;101277.97;5068537;28;20097;-46
2022/07/06 07:49:38;;;;;;;2.78;1.25;;;;;;;19.37;63.77;101284.03;5093875;28;20807;-47
2022/07/06 07:52:05;;;;;;;4.10;1.42;;;;;;;19.40;64.13;101265.59;5082157;28;20052;-45
2022/07/06 07:54:31;;;;;;;3.95;1.23;;;;;;;19.43;63.80;101260.28;5085492;28;20043;-45
2022/07/06 07:56:59;;;;;;;3.28;1.15;;;;;;;19.44;63.51;101264.66;5084060;28;20048;-47
2022/07/06 07:59:25;;;;;;;2.55;1.52;;;;;;;19.42;63.14;101248.03;5090173;28;20055;-45
2022/07/06 08:01:52;;;;;;;2.22;1.25;;;;;;;19.44;63.51;101255.88;5085076;28;20116;-45
2022/07/06 08:04:19;;;;;;;2.90;1.65;;;;;;;19.50;63.38;101254.03;5079976;28;20541;-45
2022/07/06 08:06:46;;;;;;;2.45;1.88;;;;;;;19.58;63.06;101263.47;5080188;28;20070;-45
2022/07/06 08:09:13;;;;;;;1.75;1.17;;;;;;;19.65;63.32;101259.81;5092781;28;20547;-46
2022/07/06 08:11:40;;;;;;;1.98;1.23;;;;;;;19.72;62.89;101258.78;5090806;28;20097;-45
2022/07/06 08:14:06;;;;;;;2.72;1.23;;;;;;;19.76;62.96;101256.97;5094255;28;20044;-46
2022/07/06 08:16:33;;;;;;;3.33;1.40;;;;;;;19.78;62.71;101258.66;5082442;28;20040;-45
2022/07/06 08:19:00;;;;;;;2.80;1.42;;;;;;;19.78;62.82;101266.56;5086738;28;20237;-45
2022/07/06 08:21:33;;;;;;;2.85;1.05;;;;;;;19.76;62.66;101264.88;5087380;28;20461;-45
2022/07/06 08:24:01;;;;;;;2.10;0.90;;;;;;;19.69;62.56;101269.38;5081364;28;20047;-44
2022/07/06 08:26:28;;;;;;;2.17;0.60;;;;;;;19.63;62.68;101261.63;5080502;28;20059;-45
2022/07/06 08:28:55;;;;;;;1.65;0.70;;;;;;;19.59;62.11;101259.97;5086325;28;20056;-46
2022/07/06 08:31:22;;;;;;;3.50;0.63;;;;;;;19.56;62.18;101254.78;5084574;28;20048;-44
2022/07/06 08:34:09;;;;;;;2.60;0.55;;;;;;;19.64;62.26;101263.34;5081544;28;20083;-44
2022/07/06 08:36:36;;;;;;;0.93;0.75;;;;;;;19.82;62.27;101261.25;5081630;28;20134;-45
2022/07/06 08:39:03;;;;;;;0.98;0.63;;;;;;;19.94;62.27;101260.97;5081666;28;20048;-45
2022/07/06 08:41:30;;;;;;;0.73;0.55;;;;;;;20.01;61.92;101267.84;5089649;28;20113;-45
2022/07/06 08:43:57;;;;;;;1.60;0.60;;;;;;;20.11;61.35;101262.34;5080322;28;20048;-47
2022/07/06 08:46:25;;;;;;;0.90;0.40;;;;;;;20.18;61.43;101261.31;5088934;28;20044;-48
2022/07/06 08:48:52;;;;;;;1.77;0.52;;;;;;;20.22;60.73;101260.34;5083261;28;20051;-45
2022/07/06 08:51:20;;;;;;;1.58;0.45;;;;;;;20.21;60.94;101263.88;5080438;28;20044;-46
2022/07/06 08:53:55;;;;;;;1.10;0.75;;;;;;;20.26;61.04;101262.00;5086101;28;20051;-45
2022/07/06 08:56:22;;;;;;;0.70;0.50;;;;;;;20.31;61.27;101254.00;5091035;28;20048;-46
2022/07/06 08:58:50;;;;;;;0.80;0.80;;;;;;;20.33;60.58;101262.69;5091765;28;20047;-48
2022/07/06 09:01:17;;;;;;;0.90;0.82;;;;;;;20.39;60.34;101254.66;5087507;28;20431;-43
2022/07/06 09:03:47;;;;;;;2.28;0.75;;;;;;;20.45;60.41;101256.28;5077570;28;21118;-45
2022/07/06 09:06:16;;;;;;;2.53;0.60;;;;;;;20.53;60.45;101254.31;5085373;28;20048;-48
2022/07/06 09:08:43;;;;;;;0.90;0.82;;;;;;;20.60;60.62;101259.44;5084526;28;20051;-47
2022/07/06 09:11:10;;;;;;;1.08;0.63;;;;;;;20.58;60.02;101255.97;5085724;28;20048;-45
2022/07/06 09:13:37;;;;;;;1.25;0.73;;;;;;;20.59;60.22;101255.06;5084761;28;20537;-50
2022/07/06 09:16:13;;;;;;;2.08;0.52;;;;;;;20.62;59.39;101257.63;5083981;28;20056;-46
2022/07/06 09:19:00;;;;;;;1.02;0.60;;;;;;;20.70;59.69;101250.38;5080366;28;20118;-47
2022/07/06 09:21:31;;;;;;;1.70;0.57;;;;;;;20.78;59.05;101256.31;5082381;28;20105;-47
2022/07/06 09:24:02;;;;;;;1.55;0.55;;;;;;;20.94;59.29;101255.97;5078117;28;20570;-46
2022/07/06 09:26:29;;;;;;;1.45;0.68;;;;;;;21.08;58.98;101257.34;5086527;28;20040;-47
2022/07/06 09:28:57;;;;;;;0.73;0.40;;;;;;;21.19;58.59;101257.91;5083714;28;20887;-46
2022/07/06 09:31:23;;;;;;;0.75;0.43;;;;;;;21.30;58.79;101252.31;5090765;28;20051;-48
2022/07/06 09:41:59;;;;;;;0.77;0.50;;;;;;;22.08;57.61;101245.63;5059240;28;20902;-46
2022/07/06 09:44:28;;;;;;;2.65;0.30;;;;;;;22.18;56.99;101253.22;5025488;28;20129;-47
2022/07/06 09:46:57;;;;;;;1.73;1.63;;;;;;;22.16;56.63;101250.63;5027321;28;20616;-46
2022/07/06 09:49:24;;;;;;;3.05;0.60;;;;;;;22.13;56.71;101245.47;5024702;28;20049;-47
2022/07/06 09:51:54;;;;;;;1.45;0.68;;;;;;;22.13;56.59;101241.97;5028996;28;20042;-45
2022/07/06 09:54:21;;;;;;;1.52;0.40;;;;;;;22.03;56.07;101239.66;5006362;28;20103;-47
2022/07/06 09:56:51;;;;;;;3.70;0.77;;;;;;;21.94;56.34;101239.91;5011955;28;20139;-45
2022/07/06 09:59:19;;;;;;;;;;;;;;;21.85;57.22;101245.50;5022570;28;20180;-46
2022/07/06 10:01:45;;;;;;;4.15;1.38;;;;;;;21.91;56.46;101251.44;5018470;28;19979;-46
2022/07/06 10:04:13;;;;;;;1.17;0.70;;;;;;;21.88;56.60;101251.53;5028714;28;20065;-48
2022/07/06 10:06:41;;;;;;;0.77;0.38;;;;;;;21.83;56.59;101254.31;5022280;28;20084;-45
2022/07/06 10:09:09;;;;;;;2.42;1.75;;;;;;;21.78;57.23;101255.38;5009152;28;20601;-47
2022/07/06 10:11:42;;;;;;;3.00;1.00;;;;;;;21.73;56.67;101247.56;5021126;28;20057;-48
2022/07/06 10:14:10;;;;;;;1.15;0.40;;;;;;;21.68;57.35;101249.47;5019684;28;20077;-49
2022/07/06 10:16:38;;;;;;;0.68;0.30;;;;;;;21.64;57.41;101255.72;5017749;28;20085;-48
2022/07/06 10:19:07;;;;;;;1.98;0.88;;;;;;;21.56;57.58;101259.50;5014573;28;20057;-46
2022/07/06 10:21:39;;;;;;;3.58;0.60;;;;;;;21.53;57.70;101261.34;5018332;28;20056;-45
2022/07/06 10:24:08;;;;;;;1.85;0.68;;;;;;;21.49;57.24;101265.84;5022030;28;20053;-45
2022/07/06 10:26:36;;;;;;;4.32;0.50;;;;;;;21.41;57.61;101262.56;5021454;28;20044;-47
2022/07/06 10:29:04;;;;;;;15.77;3.25;;;;;;;21.39;58.15;101253.84;5018114;28;25548;-46
2022/07/06 10:31:33;;;;;;;6.45;1.63;;;;;;;21.46;58.08;101255.38;5022677;28;20057;-49
2022/07/06 10:34:02;;;;;;;9.77;2.13;;;;;;;21.51;57.47;101258.75;5015611;28;20054;-45
2022/07/06 10:36:29;;;;;;;1.02;0.50;;;;;;;21.57;57.20;101255.94;5018121;28;20050;-45
2022/07/06 10:38:57;;;;;;;1.20;0.30;;;;;;;21.60;56.85;101262.00;5018860;28;20105;-48
2022/07/06 10:41:33;;;;;;;5.60;1.10;;;;;;;21.56;57.01;101261.25;5020221;28;20056;-52
2022/07/06 10:44:17;;;;;;;1.98;1.13;;;;;;;21.47;57.12;101269.44;5019970;28;21174;-51
2022/07/06 10:46:54;;;;;;;1.50;0.73;;;;;;;21.53;57.03;101277.16;5010458;28;20046;-52
2022/07/06 10:49:22;;;;;;;1.98;0.40;;;;;;;21.58;57.84;101275.22;5025925;28;20049;-54
2022/07/06 10:52:09;;;;;;;0.80;0.47;;;;;;;21.62;57.75;101265.47;4994132;28;20078;-54
2022/07/06 10:54:40;;;;;;;2.45;0.60;;;;;;;21.61;56.92;101263.75;5001703;28;20556;-55
2022/07/06 10:57:10;;;;;;;0.98;0.63;;;;;;;21.60;57.15;101269.91;5009048;28;22671;-53
2022/07/06 10:59:36;;;;;;;;;;;;;;;21.44;57.25;101257.19;5010467;28;20741;-55
2022/07/06 11:04:48;;;;;;;2.03;0.30;;;;;;;21.88;57.36;101246.25;5057729;27;20413;-55
2022/07/06 11:07:17;;;;;;;1.33;0.60;;;;;;;22.26;56.57;101255.63;5001425;28;20042;-54
2022/07/06 11:10:00;;;;;;;1.00;0.90;;;;;;;22.77;56.63;101255.72;4999994;28;20050;-53
2022/07/06 11:12:26;;;;;;;0.80;0.20;;;;;;;23.14;55.74;101248.25;4999911;28;20582;-52
2022/07/06 11:14:53;;;;;;;0.38;0.25;;;;;;;23.38;54.45;101243.88;5001604;28;20419;-53
2022/07/06 11:17:20;;;;;;;3.33;0.40;;;;;;;23.59;54.37;101228.97;5000061;28;20111;-51
2022/07/06 11:19:56;;;;;;;0.88;0.47;;;;;;;23.74;52.99;101227.50;4998638;28;20864;-54
2022/07/06 11:22:24;;;;;;;0.35;0.22;;;;;;;23.86;52.52;101225.28;5003193;28;20042;-51
2022/07/06 11:24:52;;;;;;;0.32;0.32;;;;;;;23.90;53.40;101231.31;4999162;28;20112;-52
2022/07/06 11:27:22;;;;;;;0.63;0.30;;;;;;;23.92;52.46;101229.47;5002164;28;20046;-50
2022/07/06 11:29:49;;;;;;;1.52;0.50;;;;;;;23.89;52.64;101227.81;5000097;28;20053;-50
2022/07/06 11:32:23;;;;;;;1.10;0.68;;;;;;;23.87;52.97;101230.53;4999047;28;20057;-50
2022/07/06 11:34:50;;;;;;;0.75;0.30;;;;;;;23.80;52.41;101226.41;5000300;28;20046;-49
2022/07/06 11:37:18;;;;;;;0.73;0.65;;;;;;;23.82;52.19;101229.88;5001705;28;20054;-51
2022/07/06 11:39:46;;;;;;;0.65;0.65;;;;;;;23.80;52.40;101221.13;5002540;28;20050;-51
2022/07/06 11:42:16;;;;;;;0.60;0.60;;;;;;;23.75;51.82;101212.50;5002317;28;20104;-52
2022/07/06 11:44:43;;;;;;;0.57;0.57;;;;;;;23.71;52.69;101216.19;4993083;28;20193;-51
2022/07/06 11:47:11;;;;;;;0.57;0.32;;;;;;;23.78;52.28;101222.97;4999450;28;20683;-50